CCS3 weather

St. Stephen Airport
St. Stephen, New Brunswick, Canada

Public forecast

Using degrees Celsius for public forecast. Weather courtesy of forecast.io.

Closest aviation weather report (METAR) to St. Stephen Airport

Closest report is Fredericton Airport, 49.8 nm (92.2 km) NE. Retrieved 2019/10/19 05:00 UTC (38 minutes ago):

CYFC 190500Z AUTO 26005KT 9SM SCT036 BKN090 07/04 A2965 RMK SLP044

Closest aviation forecast (TAF) to St. Stephen Airport

Closest forecast is Fredericton Airport, 49.8 nm (92.2 km) NE. Retrieved 2019-10-19 00:42 UTC (5 hours ago):

TAF CYFC 182339Z 1900/1912 26008KT P6SM BKN040 TEMPO 1900/1912 BKN020 BECMG 1910/1912 29012G22KT RMK FCST BASED ON AUTO OBS NXT FCST BY 190600Z